sensor_id;sensor_type;location;lat;lon;timestamp;temperature;humidity
80701;DHT22;71609;42.630;23.380;2024-01-10T00:02:17;20.80;30.50
80701;DHT22;71609;42.630;23.380;2024-01-10T00:04:43;20.80;30.50
80701;DHT22;71609;42.630;23.380;2024-01-10T00:07:09;20.80;30.50
80701;DHT22;71609;42.630;23.380;2024-01-10T00:09:34;20.80;30.50
80701;DHT22;71609;42.630;23.380;2024-01-10T00:12:00;20.80;30.50
80701;DHT22;71609;42.630;23.380;2024-01-10T00:14:26;20.80;30.40
80701;DHT22;71609;42.630;23.380;2024-01-10T00:16:52;20.80;30.40
80701;DHT22;71609;42.630;23.380;2024-01-10T00:19:17;20.80;30.50
80701;DHT22;71609;42.630;23.380;2024-01-10T00:21:43;20.80;30.40
80701;DHT22;71609;42.630;23.380;2024-01-10T00:24:09;20.80;30.50
80701;DHT22;71609;42.630;23.380;2024-01-10T00:26:34;20.80;30.40
80701;DHT22;71609;42.630;23.380;2024-01-10T00:29:00;20.70;30.40
80701;DHT22;71609;42.630;23.380;2024-01-10T00:31:26;20.80;30.40
80701;DHT22;71609;42.630;23.380;2024-01-10T00:33:52;20.80;30.40
80701;DHT22;71609;42.630;23.380;2024-01-10T00:36:17;20.80;30.40
80701;DHT22;71609;42.630;23.380;2024-01-10T00:38:43;20.80;30.30
80701;DHT22;71609;42.630;23.380;2024-01-10T00:41:09;20.80;30.40
80701;DHT22;71609;42.630;23.380;2024-01-10T00:43:35;20.80;30.40
80701;DHT22;71609;42.630;23.380;2024-01-10T00:46:01;20.80;30.40
80701;DHT22;71609;42.630;23.380;2024-01-10T00:48:26;20.80;30.20
80701;DHT22;71609;42.630;23.380;2024-01-10T00:50:52;20.80;30.30
80701;DHT22;71609;42.630;23.380;2024-01-10T00:53:18;20.70;30.30
80701;DHT22;71609;42.630;23.380;2024-01-10T00:55:44;20.70;30.20
80701;DHT22;71609;42.630;23.380;2024-01-10T00:58:09;20.80;30.30
80701;DHT22;71609;42.630;23.380;2024-01-10T01:00:35;20.80;30.30
80701;DHT22;71609;42.630;23.380;2024-01-10T01:03:01;20.70;30.20
80701;DHT22;71609;42.630;23.380;2024-01-10T01:05:26;20.80;30.30
80701;DHT22;71609;42.630;23.380;2024-01-10T01:07:52;20.80;30.30
80701;DHT22;71609;42.630;23.380;2024-01-10T01:10:18;20.80;30.30
80701;DHT22;71609;42.630;23.380;2024-01-10T01:12:44;20.80;30.30
80701;DHT22;71609;42.630;23.380;2024-01-10T01:15:10;20.70;30.20
80701;DHT22;71609;42.630;23.380;2024-01-10T01:17:36;20.70;30.20
80701;DHT22;71609;42.630;23.380;2024-01-10T01:20:01;20.70;30.10
80701;DHT22;71609;42.630;23.380;2024-01-10T01:22:30;20.70;30.20
80701;DHT22;71609;42.630;23.380;2024-01-10T01:24:56;20.70;30.20
80701;DHT22;71609;42.630;23.380;2024-01-10T01:27:23;20.70;30.20
80701;DHT22;71609;42.630;23.380;2024-01-10T01:29:49;20.70;30.20
80701;DHT22;71609;42.630;23.380;2024-01-10T01:32:15;20.70;30.20
80701;DHT22;71609;42.630;23.380;2024-01-10T01:34:40;20.70;31.40
80701;DHT22;71609;42.630;23.380;2024-01-10T01:37:06;20.70;30.30
80701;DHT22;71609;42.630;23.380;2024-01-10T01:39:32;20.70;30.20
80701;DHT22;71609;42.630;23.380;2024-01-10T01:41:57;20.70;30.10
80701;DHT22;71609;42.630;23.380;2024-01-10T01:44:23;20.70;30.10
80701;DHT22;71609;42.630;23.380;2024-01-10T01:46:49;20.70;30.20
80701;DHT22;71609;42.630;23.380;2024-01-10T01:49:15;20.70;30.10
80701;DHT22;71609;42.630;23.380;2024-01-10T01:51:42;20.70;30.10
80701;DHT22;71609;42.630;23.380;2024-01-10T01:54:08;20.70;30.10
80701;DHT22;71609;42.630;23.380;2024-01-10T01:56:36;20.70;30.00
80701;DHT22;71609;42.630;23.380;2024-01-10T01:59:04;20.70;30.10
80701;DHT22;71609;42.630;23.380;2024-01-10T02:01:30;20.70;30.10
80701;DHT22;71609;42.630;23.380;2024-01-10T02:03:56;20.60;30.00
80701;DHT22;71609;42.630;23.380;2024-01-10T02:06:22;20.70;30.00
80701;DHT22;71609;42.630;23.380;2024-01-10T02:08:48;20.60;31.00
80701;DHT22;71609;42.630;23.380;2024-01-10T02:11:14;20.60;30.00
80701;DHT22;71609;42.630;23.380;2024-01-10T02:13:40;20.70;31.10
80701;DHT22;71609;42.630;23.380;2024-01-10T02:16:06;20.60;30.00
80701;DHT22;71609;42.630;23.380;2024-01-10T02:18:34;20.70;30.00
80701;DHT22;71609;42.630;23.380;2024-01-10T02:21:03;20.70;30.00
80701;DHT22;71609;42.630;23.380;2024-01-10T02:23:29;20.70;30.00
80701;DHT22;71609;42.630;23.380;2024-01-10T02:25:54;20.70;30.00
80701;DHT22;71609;42.630;23.380;2024-01-10T02:28:20;20.70;30.10
80701;DHT22;71609;42.630;23.380;2024-01-10T02:30:49;20.60;30.10
80701;DHT22;71609;42.630;23.380;2024-01-10T02:33:16;20.70;30.00
80701;DHT22;71609;42.630;23.380;2024-01-10T02:35:42;20.70;30.10
80701;DHT22;71609;42.630;23.380;2024-01-10T02:38:07;20.70;30.00
80701;DHT22;71609;42.630;23.380;2024-01-10T02:40:33;20.70;30.00
80701;DHT22;71609;42.630;23.380;2024-01-10T02:42:59;20.70;30.00
80701;DHT22;71609;42.630;23.380;2024-01-10T02:45:25;20.70;30.00
80701;DHT22;71609;42.630;23.380;2024-01-10T02:47:50;20.70;30.00
80701;DHT22;71609;42.630;23.380;2024-01-10T02:50:16;20.70;29.90
80701;DHT22;71609;42.630;23.380;2024-01-10T02:52:42;20.60;29.90
80701;DHT22;71609;42.630;23.380;2024-01-10T02:55:08;20.70;29.90
80701;DHT22;71609;42.630;23.380;2024-01-10T02:57:34;20.60;29.90
80701;DHT22;71609;42.630;23.380;2024-01-10T02:59:59;20.70;29.90
80701;DHT22;71609;42.630;23.380;2024-01-10T03:02:25;20.60;29.90
80701;DHT22;71609;42.630;23.380;2024-01-10T03:04:51;20.60;29.90
80701;DHT22;71609;42.630;23.380;2024-01-10T03:07:17;20.60;29.90
80701;DHT22;71609;42.630;23.380;2024-01-10T03:09:42;20.70;29.80
80701;DHT22;71609;42.630;23.380;2024-01-10T03:12:10;20.60;29.90
80701;DHT22;71609;42.630;23.380;2024-01-10T03:14:36;20.60;29.90
80701;DHT22;71609;42.630;23.380;2024-01-10T03:17:02;20.70;29.90
80701;DHT22;71609;42.630;23.380;2024-01-10T03:19:28;20.70;29.90
80701;DHT22;71609;42.630;23.380;2024-01-10T03:21:53;20.70;29.90
80701;DHT22;71609;42.630;23.380;2024-01-10T03:24:19;20.60;29.80
80701;DHT22;71609;42.630;23.380;2024-01-10T03:26:45;20.70;29.90
80701;DHT22;71609;42.630;23.380;2024-01-10T03:29:11;20.70;29.80
80701;DHT22;71609;42.630;23.380;2024-01-10T03:31:36;20.60;29.70
80701;DHT22;71609;42.630;23.380;2024-01-10T03:34:03;20.70;29.70
80701;DHT22;71609;42.630;23.380;2024-01-10T03:36:29;20.60;29.70
80701;DHT22;71609;42.630;23.380;2024-01-10T03:38:55;20.70;29.80
80701;DHT22;71609;42.630;23.380;2024-01-10T03:41:21;20.70;29.80
80701;DHT22;71609;42.630;23.380;2024-01-10T03:43:47;20.70;29.70
80701;DHT22;71609;42.630;23.380;2024-01-10T03:46:13;20.70;29.70
80701;DHT22;71609;42.630;23.380;2024-01-10T03:48:39;20.70;29.70
80701;DHT22;71609;42.630;23.380;2024-01-10T03:51:14;20.60;29.80
80701;DHT22;71609;42.630;23.380;2024-01-10T03:53:40;20.60;29.70
80701;DHT22;71609;42.630;23.380;2024-01-10T03:56:06;20.70;29.70
80701;DHT22;71609;42.630;23.380;2024-01-10T03:58:32;20.70;29.80
80701;DHT22;71609;42.630;23.380;2024-01-10T04:00:58;20.70;29.70
80701;DHT22;71609;42.630;23.380;2024-01-10T04:03:24;20.70;29.70
80701;DHT22;71609;42.630;23.380;2024-01-10T04:05:49;20.70;29.70
80701;DHT22;71609;42.630;23.380;2024-01-10T04:08:15;20.60;29.70
80701;DHT22;71609;42.630;23.380;2024-01-10T04:10:41;20.60;29.70
80701;DHT22;71609;42.630;23.380;2024-01-10T04:13:07;20.70;29.80
80701;DHT22;71609;42.630;23.380;2024-01-10T04:15:32;20.70;29.70
80701;DHT22;71609;42.630;23.380;2024-01-10T04:18:00;20.60;29.70
80701;DHT22;71609;42.630;23.380;2024-01-10T04:20:25;20.70;29.70
80701;DHT22;71609;42.630;23.380;2024-01-10T04:22:51;20.70;29.60
80701;DHT22;71609;42.630;23.380;2024-01-10T04:25:17;20.70;29.70
80701;DHT22;71609;42.630;23.380;2024-01-10T04:27:42;20.60;29.60
80701;DHT22;71609;42.630;23.380;2024-01-10T04:30:08;20.60;29.60
80701;DHT22;71609;42.630;23.380;2024-01-10T04:32:34;20.60;29.60
80701;DHT22;71609;42.630;23.380;2024-01-10T04:35:00;20.60;29.70
80701;DHT22;71609;42.630;23.380;2024-01-10T04:37:26;20.60;29.60
80701;DHT22;71609;42.630;23.380;2024-01-10T04:39:52;20.60;29.60
80701;DHT22;71609;42.630;23.380;2024-01-10T04:42:18;20.60;29.60
80701;DHT22;71609;42.630;23.380;2024-01-10T04:44:43;20.60;29.60
80701;DHT22;71609;42.630;23.380;2024-01-10T04:47:09;20.60;29.60
80701;DHT22;71609;42.630;23.380;2024-01-10T04:49:35;20.70;29.60
80701;DHT22;71609;42.630;23.380;2024-01-10T04:52:01;20.60;29.60
80701;DHT22;71609;42.630;23.380;2024-01-10T04:54:27;20.60;29.60
80701;DHT22;71609;42.630;23.380;2024-01-10T04:56:52;20.60;29.60
80701;DHT22;71609;42.630;23.380;2024-01-10T04:59:18;20.70;29.60
80701;DHT22;71609;42.630;23.380;2024-01-10T05:01:44;20.70;29.50
80701;DHT22;71609;42.630;23.380;2024-01-10T05:04:10;20.70;29.70
80701;DHT22;71609;42.630;23.380;2024-01-10T05:06:36;20.70;29.50
80701;DHT22;71609;42.630;23.380;2024-01-10T05:09:01;20.70;29.50
80701;DHT22;71609;42.630;23.380;2024-01-10T05:11:28;20.70;29.60
80701;DHT22;71609;42.630;23.380;2024-01-10T05:13:53;20.70;29.70
80701;DHT22;71609;42.630;23.380;2024-01-10T05:16:19;20.70;29.70
80701;DHT22;71609;42.630;23.380;2024-01-10T05:18:45;20.70;29.90
80701;DHT22;71609;42.630;23.380;2024-01-10T05:21:12;20.60;29.70
80701;DHT22;71609;42.630;23.380;2024-01-10T05:23:37;20.70;28.70
80701;DHT22;71609;42.630;23.380;2024-01-10T05:26:06;20.70;27.00
80701;DHT22;71609;42.630;23.380;2024-01-10T05:28:31;20.70;23.80
80701;DHT22;71609;42.630;23.380;2024-01-10T05:30:58;20.70;21.90
80701;DHT22;71609;42.630;23.380;2024-01-10T05:33:24;20.60;21.60
80701;DHT22;71609;42.630;23.380;2024-01-10T05:35:50;20.60;20.80
80701;DHT22;71609;42.630;23.380;2024-01-10T05:38:16;20.60;20.60
80701;DHT22;71609;42.630;23.380;2024-01-10T05:40:42;20.50;20.50
80701;DHT22;71609;42.630;23.380;2024-01-10T05:43:07;20.40;20.40
80701;DHT22;71609;42.630;23.380;2024-01-10T05:45:33;20.30;20.90
80701;DHT22;71609;42.630;23.380;2024-01-10T05:47:59;20.20;20.40
80701;DHT22;71609;42.630;23.380;2024-01-10T05:50:25;20.10;21.20
80701;DHT22;71609;42.630;23.380;2024-01-10T05:52:51;20.00;21.90
80701;DHT22;71609;42.630;23.380;2024-01-10T05:55:16;19.90;22.00
80701;DHT22;71609;42.630;23.380;2024-01-10T05:57:42;19.90;22.70
80701;DHT22;71609;42.630;23.380;2024-01-10T06:00:08;19.80;23.30
80701;DHT22;71609;42.630;23.380;2024-01-10T06:02:39;19.70;23.50
80701;DHT22;71609;42.630;23.380;2024-01-10T06:05:09;19.70;24.20
80701;DHT22;71609;42.630;23.380;2024-01-10T06:07:38;19.70;24.00
80701;DHT22;71609;42.630;23.380;2024-01-10T06:10:06;19.70;25.20
80701;DHT22;71609;42.630;23.380;2024-01-10T06:12:32;19.80;24.70
80701;DHT22;71609;42.630;23.380;2024-01-10T06:14:58;19.80;25.30
80701;DHT22;71609;42.630;23.380;2024-01-10T06:17:24;19.80;25.50
80701;DHT22;71609;42.630;23.380;2024-01-10T06:19:50;19.80;25.90
80701;DHT22;71609;42.630;23.380;2024-01-10T06:22:16;19.70;26.20
80701;DHT22;71609;42.630;23.380;2024-01-10T06:24:43;19.70;26.60
80701;DHT22;71609;42.630;23.380;2024-01-10T06:27:09;19.70;26.90
80701;DHT22;71609;42.630;23.380;2024-01-10T06:29:36;19.70;27.30
80701;DHT22;71609;42.630;23.380;2024-01-10T06:32:05;19.70;27.90
80701;DHT22;71609;42.630;23.380;2024-01-10T06:34:32;19.70;28.10
80701;DHT22;71609;42.630;23.380;2024-01-10T06:36:58;19.70;27.90
80701;DHT22;71609;42.630;23.380;2024-01-10T06:39:24;19.80;28.10
80701;DHT22;71609;42.630;23.380;2024-01-10T06:41:50;19.80;28.20
80701;DHT22;71609;42.630;23.380;2024-01-10T06:44:16;19.80;28.40
80701;DHT22;71609;42.630;23.380;2024-01-10T06:46:45;19.80;28.60
80701;DHT22;71609;42.630;23.380;2024-01-10T06:49:11;19.90;29.00
80701;DHT22;71609;42.630;23.380;2024-01-10T06:51:38;19.90;29.20
80701;DHT22;71609;42.630;23.380;2024-01-10T06:54:04;19.90;29.60
80701;DHT22;71609;42.630;23.380;2024-01-10T06:56:33;19.90;29.80
80701;DHT22;71609;42.630;23.380;2024-01-10T06:59:00;19.90;29.80
80701;DHT22;71609;42.630;23.380;2024-01-10T07:01:26;19.90;30.80
80701;DHT22;71609;42.630;23.380;2024-01-10T07:03:53;19.90;29.90
80701;DHT22;71609;42.630;23.380;2024-01-10T07:06:22;20.00;29.90
80701;DHT22;71609;42.630;23.380;2024-01-10T07:08:49;20.00;30.30
80701;DHT22;71609;42.630;23.380;2024-01-10T07:11:18;20.10;30.70
80701;DHT22;71609;42.630;23.380;2024-01-10T07:13:47;20.10;31.30
80701;DHT22;71609;42.630;23.380;2024-01-10T07:16:13;20.10;31.50
80701;DHT22;71609;42.630;23.380;2024-01-10T07:18:42;20.20;31.60
80701;DHT22;71609;42.630;23.380;2024-01-10T07:21:09;20.20;31.70
80701;DHT22;71609;42.630;23.380;2024-01-10T07:23:36;20.30;32.00
80701;DHT22;71609;42.630;23.380;2024-01-10T07:26:03;20.40;31.80
80701;DHT22;71609;42.630;23.380;2024-01-10T07:28:29;20.50;31.90
80701;DHT22;71609;42.630;23.380;2024-01-10T07:31:03;20.60;31.40
80701;DHT22;71609;42.630;23.380;2024-01-10T07:33:29;20.70;31.40
80701;DHT22;71609;42.630;23.380;2024-01-10T07:35:57;20.80;31.50
80701;DHT22;71609;42.630;23.380;2024-01-10T07:38:23;20.80;32.10
80701;DHT22;71609;42.630;23.380;2024-01-10T07:40:49;21.00;32.20
80701;DHT22;71609;42.630;23.380;2024-01-10T07:43:15;21.00;32.20
80701;DHT22;71609;42.630;23.380;2024-01-10T07:45:40;21.10;32.20
80701;DHT22;71609;42.630;23.380;2024-01-10T07:48:07;21.20;32.10
80701;DHT22;71609;42.630;23.380;2024-01-10T07:50:32;21.30;31.70
80701;DHT22;71609;42.630;23.380;2024-01-10T07:52:58;21.30;31.70
80701;DHT22;71609;42.630;23.380;2024-01-10T07:55:24;21.50;31.90
80701;DHT22;71609;42.630;23.380;2024-01-10T07:57:49;21.50;31.60
80701;DHT22;71609;42.630;23.380;2024-01-10T08:00:15;21.60;30.70
80701;DHT22;71609;42.630;23.380;2024-01-10T08:02:41;21.70;31.30
80701;DHT22;71609;42.630;23.380;2024-01-10T08:05:07;21.70;31.50
80701;DHT22;71609;42.630;23.380;2024-01-10T08:07:37;21.80;32.00
80701;DHT22;71609;42.630;23.380;2024-01-10T08:10:07;21.90;32.00
80701;DHT22;71609;42.630;23.380;2024-01-10T08:12:35;22.00;31.70
80701;DHT22;71609;42.630;23.380;2024-01-10T08:15:00;22.00;30.40
80701;DHT22;71609;42.630;23.380;2024-01-10T08:17:27;22.00;30.10
80701;DHT22;71609;42.630;23.380;2024-01-10T08:19:53;22.10;29.90
80701;DHT22;71609;42.630;23.380;2024-01-10T08:22:19;22.10;30.90
80701;DHT22;71609;42.630;23.380;2024-01-10T08:24:45;22.10;31.60
80701;DHT22;71609;42.630;23.380;2024-01-10T08:27:11;22.20;31.80
80701;DHT22;71609;42.630;23.380;2024-01-10T08:29:37;22.20;31.70
80701;DHT22;71609;42.630;23.380;2024-01-10T08:32:03;22.20;30.30
80701;DHT22;71609;42.630;23.380;2024-01-10T08:34:29;22.20;30.20
80701;DHT22;71609;42.630;23.380;2024-01-10T08:36:55;22.20;29.60
80701;DHT22;71609;42.630;23.380;2024-01-10T08:39:21;22.30;29.70
80701;DHT22;71609;42.630;23.380;2024-01-10T08:41:50;22.30;28.90
80701;DHT22;71609;42.630;23.380;2024-01-10T08:44:15;22.30;28.50
80701;DHT22;71609;42.630;23.380;2024-01-10T08:46:41;22.30;28.60
80701;DHT22;71609;42.630;23.380;2024-01-10T08:49:07;22.30;28.30
80701;DHT22;71609;42.630;23.380;2024-01-10T08:51:32;22.40;28.10
80701;DHT22;71609;42.630;23.380;2024-01-10T08:53:59;22.40;27.00
80701;DHT22;71609;42.630;23.380;2024-01-10T08:56:25;22.30;27.30
80701;DHT22;71609;42.630;23.380;2024-01-10T08:58:51;22.30;27.40
80701;DHT22;71609;42.630;23.380;2024-01-10T09:01:18;22.30;27.10
80701;DHT22;71609;42.630;23.380;2024-01-10T09:03:44;22.30;27.70
80701;DHT22;71609;42.630;23.380;2024-01-10T09:06:10;22.20;28.60
80701;DHT22;71609;42.630;23.380;2024-01-10T09:08:36;22.20;28.50
80701;DHT22;71609;42.630;23.380;2024-01-10T09:11:05;22.20;28.60
80701;DHT22;71609;42.630;23.380;2024-01-10T09:13:31;22.20;28.50
80701;DHT22;71609;42.630;23.380;2024-01-10T09:15:57;22.10;28.20
80701;DHT22;71609;42.630;23.380;2024-01-10T09:18:22;22.20;28.50
80701;DHT22;71609;42.630;23.380;2024-01-10T09:20:48;22.10;28.60
80701;DHT22;71609;42.630;23.380;2024-01-10T09:23:14;22.10;28.40
80701;DHT22;71609;42.630;23.380;2024-01-10T09:25:41;22.10;28.80
80701;DHT22;71609;42.630;23.380;2024-01-10T09:28:06;22.10;29.00
80701;DHT22;71609;42.630;23.380;2024-01-10T09:33:08;22.00;28.90
80701;DHT22;71609;42.630;23.380;2024-01-10T09:35:34;22.00;29.30
80701;DHT22;71609;42.630;23.380;2024-01-10T09:37:59;22.10;28.10
80701;DHT22;71609;42.630;23.380;2024-01-10T09:40:26;22.00;27.40
80701;DHT22;71609;42.630;23.380;2024-01-10T09:42:54;22.10;27.20
80701;DHT22;71609;42.630;23.380;2024-01-10T09:45:21;22.10;28.00
80701;DHT22;71609;42.630;23.380;2024-01-10T09:47:57;22.10;29.00
80701;DHT22;71609;42.630;23.380;2024-01-10T09:50:23;22.20;29.70
80701;DHT22;71609;42.630;23.380;2024-01-10T09:52:52;22.20;30.50
80701;DHT22;71609;42.630;23.380;2024-01-10T09:55:22;22.30;29.80
80701;DHT22;71609;42.630;23.380;2024-01-10T09:57:51;22.30;30.00
80701;DHT22;71609;42.630;23.380;2024-01-10T10:00:17;22.30;30.90
80701;DHT22;71609;42.630;23.380;2024-01-10T10:02:46;22.40;30.90
80701;DHT22;71609;42.630;23.380;2024-01-10T10:05:16;22.50;31.60
80701;DHT22;71609;42.630;23.380;2024-01-10T10:07:49;22.50;31.10
80701;DHT22;71609;42.630;23.380;2024-01-10T10:10:18;22.60;29.60
80701;DHT22;71609;42.630;23.380;2024-01-10T10:12:48;22.60;29.00
80701;DHT22;71609;42.630;23.380;2024-01-10T10:15:16;22.60;28.30
80701;DHT22;71609;42.630;23.380;2024-01-10T10:17:47;22.60;28.20
80701;DHT22;71609;42.630;23.380;2024-01-10T10:20:35;22.60;28.30
80701;DHT22;71609;42.630;23.380;2024-01-10T10:23:03;22.70;28.50
80701;DHT22;71609;42.630;23.380;2024-01-10T10:25:34;22.70;28.70
80701;DHT22;71609;42.630;23.380;2024-01-10T10:28:02;22.70;28.80
80701;DHT22;71609;42.630;23.380;2024-01-10T10:30:28;22.70;28.80
80701;DHT22;71609;42.630;23.380;2024-01-10T10:32:56;22.80;29.20
80701;DHT22;71609;42.630;23.380;2024-01-10T10:35:22;22.80;28.90
80701;DHT22;71609;42.630;23.380;2024-01-10T10:37:52;22.90;29.40
80701;DHT22;71609;42.630;23.380;2024-01-10T10:40:19;22.80;30.00
80701;DHT22;71609;42.630;23.380;2024-01-10T10:42:47;22.90;30.60
80701;DHT22;71609;42.630;23.380;2024-01-10T10:45:17;22.90;31.10
80701;DHT22;71609;42.630;23.380;2024-01-10T10:47:45;22.90;31.00
80701;DHT22;71609;42.630;23.380;2024-01-10T10:50:22;22.90;29.10
80701;DHT22;71609;42.630;23.380;2024-01-10T10:52:48;23.00;27.30
80701;DHT22;71609;42.630;23.380;2024-01-10T10:55:18;23.00;27.50
80701;DHT22;71609;42.630;23.380;2024-01-10T10:57:48;23.00;26.30
80701;DHT22;71609;42.630;23.380;2024-01-10T11:02:41;23.10;23.00
80701;DHT22;71609;42.630;23.380;2024-01-10T11:05:09;23.10;22.60
80701;DHT22;71609;42.630;23.380;2024-01-10T11:07:40;23.20;22.60
80701;DHT22;71609;42.630;23.380;2024-01-10T11:10:11;23.20;22.50
80701;DHT22;71609;42.630;23.380;2024-01-10T11:15:46;23.20;20.60
80701;DHT22;71609;42.630;23.380;2024-01-10T11:23:55;23.20;20.20
80701;DHT22;71609;42.630;23.380;2024-01-10T11:26:21;23.00;20.30
80701;DHT22;71609;42.630;23.380;2024-01-10T11:28:47;23.00;20.70
80701;DHT22;71609;42.630;23.380;2024-01-10T11:31:14;23.00;21.00
80701;DHT22;71609;42.630;23.380;2024-01-10T11:33:43;22.90;21.10
80701;DHT22;71609;42.630;23.380;2024-01-10T11:36:18;22.80;20.90
80701;DHT22;71609;42.630;23.380;2024-01-10T11:46:58;22.60;23.30
80701;DHT22;71609;42.630;23.380;2024-01-10T11:49:24;22.50;23.50
80701;DHT22;71609;42.630;23.380;2024-01-10T11:51:58;22.40;23.80
80701;DHT22;71609;42.630;23.380;2024-01-10T11:54:43;22.40;24.60
80701;DHT22;71609;42.630;23.380;2024-01-10T11:59:44;22.30;24.50
80701;DHT22;71609;42.630;23.380;2024-01-10T12:02:15;22.30;24.80
80701;DHT22;71609;42.630;23.380;2024-01-10T12:04:43;22.30;25.10
80701;DHT22;71609;42.630;23.380;2024-01-10T12:07:09;22.30;25.10
80701;DHT22;71609;42.630;23.380;2024-01-10T12:09:35;22.30;25.70
80701;DHT22;71609;42.630;23.380;2024-01-10T12:12:02;22.40;26.30
80701;DHT22;71609;42.630;23.380;2024-01-10T12:14:28;22.40;25.80
80701;DHT22;71609;42.630;23.380;2024-01-10T12:16:54;22.40;25.70
80701;DHT22;71609;42.630;23.380;2024-01-10T12:19:20;22.40;25.90
80701;DHT22;71609;42.630;23.380;2024-01-10T12:21:46;22.50;26.10
80701;DHT22;71609;42.630;23.380;2024-01-10T12:24:13;22.40;26.00
80701;DHT22;71609;42.630;23.380;2024-01-10T12:26:47;22.40;26.00
80701;DHT22;71609;42.630;23.380;2024-01-10T12:29:13;22.50;26.20
80701;DHT22;71609;42.630;23.380;2024-01-10T12:31:42;22.50;26.10
80701;DHT22;71609;42.630;23.380;2024-01-10T12:34:09;22.50;26.10
80701;DHT22;71609;42.630;23.380;2024-01-10T12:36:36;22.50;26.10
80701;DHT22;71609;42.630;23.380;2024-01-10T12:39:01;22.50;26.40
80701;DHT22;71609;42.630;23.380;2024-01-10T12:41:27;22.60;26.60
80701;DHT22;71609;42.630;23.380;2024-01-10T12:43:54;22.60;26.70
80701;DHT22;71609;42.630;23.380;2024-01-10T12:46:22;22.60;26.70
80701;DHT22;71609;42.630;23.380;2024-01-10T12:49:06;22.60;26.70
80701;DHT22;71609;42.630;23.380;2024-01-10T12:51:34;22.60;27.00
80701;DHT22;71609;42.630;23.380;2024-01-10T12:54:02;22.60;27.20
80701;DHT22;71609;42.630;23.380;2024-01-10T12:56:35;22.60;27.10
80701;DHT22;71609;42.630;23.380;2024-01-10T12:59:01;22.60;27.10
80701;DHT22;71609;42.630;23.380;2024-01-10T13:01:27;22.60;27.30
80701;DHT22;71609;42.630;23.380;2024-01-10T13:03:52;22.60;27.50
80701;DHT22;71609;42.630;23.380;2024-01-10T13:06:18;22.70;27.50
80701;DHT22;71609;42.630;23.380;2024-01-10T13:08:48;22.70;27.70
80701;DHT22;71609;42.630;23.380;2024-01-10T13:11:14;22.70;27.60
80701;DHT22;71609;42.630;23.380;2024-01-10T13:13:40;22.70;27.60
80701;DHT22;71609;42.630;23.380;2024-01-10T13:16:07;22.70;27.60
80701;DHT22;71609;42.630;23.380;2024-01-10T13:18:39;22.70;27.10
80701;DHT22;71609;42.630;23.380;2024-01-10T13:21:05;22.70;27.00
80701;DHT22;71609;42.630;23.380;2024-01-10T13:23:31;22.70;26.90
80701;DHT22;71609;42.630;23.380;2024-01-10T13:25:58;22.70;26.80
80701;DHT22;71609;42.630;23.380;2024-01-10T13:28:24;22.80;26.60
80701;DHT22;71609;42.630;23.380;2024-01-10T13:30:50;22.80;26.50
80701;DHT22;71609;42.630;23.380;2024-01-10T13:33:18;22.80;26.40
80701;DHT22;71609;42.630;23.380;2024-01-10T13:35:45;22.80;26.50
80701;DHT22;71609;42.630;23.380;2024-01-10T13:38:10;22.70;26.10
80701;DHT22;71609;42.630;23.380;2024-01-10T13:40:36;22.70;25.40
80701;DHT22;71609;42.630;23.380;2024-01-10T13:43:04;22.70;25.00
80701;DHT22;71609;42.630;23.380;2024-01-10T13:45:30;22.80;25.10
80701;DHT22;71609;42.630;23.380;2024-01-10T13:47:55;22.70;26.70
80701;DHT22;71609;42.630;23.380;2024-01-10T13:50:21;22.80;26.00
80701;DHT22;71609;42.630;23.380;2024-01-10T13:52:49;22.80;25.60
80701;DHT22;71609;42.630;23.380;2024-01-10T13:55:15;22.80;25.80
80701;DHT22;71609;42.630;23.380;2024-01-10T13:57:40;22.80;26.40
80701;DHT22;71609;42.630;23.380;2024-01-10T14:00:06;22.70;26.10
80701;DHT22;71609;42.630;23.380;2024-01-10T14:02:35;22.70;26.00
80701;DHT22;71609;42.630;23.380;2024-01-10T14:05:01;22.70;25.90
80701;DHT22;71609;42.630;23.380;2024-01-10T14:07:32;22.70;25.70
80701;DHT22;71609;42.630;23.380;2024-01-10T14:09:58;22.70;25.80
80701;DHT22;71609;42.630;23.380;2024-01-10T14:12:23;22.80;25.80
80701;DHT22;71609;42.630;23.380;2024-01-10T14:14:49;22.80;25.60
80701;DHT22;71609;42.630;23.380;2024-01-10T14:17:16;22.80;25.80
80701;DHT22;71609;42.630;23.380;2024-01-10T14:19:42;22.70;26.10
80701;DHT22;71609;42.630;23.380;2024-01-10T14:22:09;22.70;26.30
80701;DHT22;71609;42.630;23.380;2024-01-10T14:24:35;22.70;26.50
80701;DHT22;71609;42.630;23.380;2024-01-10T14:27:01;22.70;27.20
80701;DHT22;71609;42.630;23.380;2024-01-10T14:29:27;22.70;26.50
80701;DHT22;71609;42.630;23.380;2024-01-10T14:31:52;22.70;26.70
80701;DHT22;71609;42.630;23.380;2024-01-10T14:34:18;22.70;27.10
80701;DHT22;71609;42.630;23.380;2024-01-10T14:36:44;22.70;27.30
80701;DHT22;71609;42.630;23.380;2024-01-10T14:39:10;22.70;27.20
80701;DHT22;71609;42.630;23.380;2024-01-10T14:41:55;22.70;27.40
80701;DHT22;71609;42.630;23.380;2024-01-10T14:44:21;22.70;27.70
80701;DHT22;71609;42.630;23.380;2024-01-10T14:46:47;22.70;28.00
80701;DHT22;71609;42.630;23.380;2024-01-10T14:49:13;22.70;28.00
80701;DHT22;71609;42.630;23.380;2024-01-10T14:51:38;22.70;27.80
80701;DHT22;71609;42.630;23.380;2024-01-10T14:54:04;22.70;27.80
80701;DHT22;71609;42.630;23.380;2024-01-10T14:56:30;22.70;27.70
80701;DHT22;71609;42.630;23.380;2024-01-10T14:58:56;22.70;27.80
80701;DHT22;71609;42.630;23.380;2024-01-10T15:01:21;22.80;27.90
80701;DHT22;71609;42.630;23.380;2024-01-10T15:03:47;22.80;27.90
80701;DHT22;71609;42.630;23.380;2024-01-10T15:06:13;22.80;27.90
80701;DHT22;71609;42.630;23.380;2024-01-10T15:08:42;22.80;27.90
80701;DHT22;71609;42.630;23.380;2024-01-10T15:11:07;22.80;27.90
80701;DHT22;71609;42.630;23.380;2024-01-10T15:13:37;22.80;27.90
80701;DHT22;71609;42.630;23.380;2024-01-10T15:16:03;22.80;28.10
80701;DHT22;71609;42.630;23.380;2024-01-10T15:18:29;22.80;28.00
80701;DHT22;71609;42.630;23.380;2024-01-10T15:20:54;22.80;27.90
80701;DHT22;71609;42.630;23.380;2024-01-10T15:23:20;22.80;27.70
80701;DHT22;71609;42.630;23.380;2024-01-10T15:25:46;22.80;27.80
80701;DHT22;71609;42.630;23.380;2024-01-10T15:28:12;22.80;27.90
80701;DHT22;71609;42.630;23.380;2024-01-10T15:30:38;22.90;28.00
80701;DHT22;71609;42.630;23.380;2024-01-10T15:33:04;22.80;28.00
80701;DHT22;71609;42.630;23.380;2024-01-10T15:35:30;22.80;28.00
80701;DHT22;71609;42.630;23.380;2024-01-10T15:37:55;22.80;27.90